Time;durP1;ratioP1;P1;durP2;ratioP2;P2;SDS_P1;SDS_P2;PMS_P1;PMS_P2;Temp;Humidity;BMP_temperature;BMP_pressure;BME280_temperature;BME280_humidity;BME280_pressure;Samples;Min_cycle;Max_cycle;Signal;HPM_P1;HPM_P2
2023/09/14 00:01:11;;;;;;;6.50;2.80;;;14.20;99.90;;;;;;5013473;28;20971;-52
2023/09/14 00:03:38;;;;;;;4.13;2.90;;;14.20;99.90;;;;;;5014293;28;20463;-52
2023/09/14 00:06:04;;;;;;;8.10;2.97;;;14.10;99.90;;;;;;5014733;28;20502;-52
2023/09/14 00:08:31;;;;;;;13.90;3.50;;;14.10;99.90;;;;;;5011282;28;20558;-52
2023/09/14 00:11:00;;;;;;;4.20;2.90;;;14.10;99.90;;;;;;5013151;28;20546;-52
2023/09/14 00:13:27;;;;;;;5.17;2.60;;;14.10;99.90;;;;;;5012250;28;21059;-51
2023/09/14 00:15:54;;;;;;;9.70;3.00;;;14.00;99.90;;;;;;5013858;28;20463;-51
2023/09/14 00:18:21;;;;;;;5.37;3.00;;;14.00;99.90;;;;;;5015840;28;20515;-51
2023/09/14 00:20:48;;;;;;;6.33;2.90;;;14.00;99.90;;;;;;5011902;28;20502;-51
2023/09/14 00:23:14;;;;;;;5.93;2.97;;;14.00;99.90;;;;;;5014510;28;20505;-51
2023/09/14 00:25:41;;;;;;;8.10;2.53;;;13.90;99.90;;;;;;5012279;28;20562;-53
2023/09/14 00:28:09;;;;;;;5.13;3.03;;;13.90;99.90;;;;;;5008122;28;20518;-53
2023/09/14 00:30:35;;;;;;;10.97;3.50;;;13.80;99.90;;;;;;5014349;28;20475;-52
2023/09/14 00:33:02;;;;;;;3.33;2.30;;;13.70;99.90;;;;;;5014313;28;20590;-50
2023/09/14 00:35:28;;;;;;;3.53;2.97;;;13.60;99.90;;;;;;5013584;28;20475;-52
2023/09/14 00:37:55;;;;;;;6.43;2.60;;;13.60;99.90;;;;;;5013111;28;20522;-51
2023/09/14 00:40:22;;;;;;;6.90;2.97;;;13.60;99.90;;;;;;5014332;28;20804;-51
2023/09/14 00:42:50;;;;;;;4.17;3.17;;;13.50;99.90;;;;;;5007810;28;20474;-51
2023/09/14 00:45:20;;;;;;;4.43;2.90;;;13.50;99.90;;;;;;5014391;28;20531;-52
2023/09/14 00:47:50;;;;;;;8.10;2.80;;;13.50;99.90;;;;;;5013900;28;20583;-51
2023/09/14 00:50:17;;;;;;;5.57;3.00;;;13.50;99.90;;;;;;5014554;28;20447;-52
2023/09/14 00:52:45;;;;;;;5.27;3.00;;;13.40;99.90;;;;;;5014369;28;20833;-52
2023/09/14 00:55:17;;;;;;;8.93;2.90;;;13.40;99.90;;;;;;5005436;28;20491;-51
2023/09/14 00:57:44;;;;;;;5.73;3.33;;;13.30;99.90;;;;;;5010893;28;20503;-52
2023/09/14 01:00:12;;;;;;;4.37;2.90;;;13.30;99.90;;;;;;5001407;28;20897;-52
2023/09/14 01:02:40;;;;;;;4.40;2.83;;;13.20;99.90;;;;;;5020440;28;20468;-51
2023/09/14 01:05:08;;;;;;;4.10;3.23;;;13.30;99.90;;;;;;5014715;28;20460;-51
2023/09/14 01:07:36;;;;;;;5.43;2.90;;;13.20;99.90;;;;;;5012285;28;20495;-51
2023/09/14 01:10:04;;;;;;;9.70;2.90;;;13.20;99.90;;;;;;5017869;28;20466;-52
2023/09/14 01:12:32;;;;;;;4.90;3.23;;;13.10;99.90;;;;;;5018917;28;20467;-51
2023/09/14 01:15:03;;;;;;;5.00;3.50;;;13.10;99.90;;;;;;5014187;28;21257;-50
2023/09/14 01:17:36;;;;;;;4.83;2.53;;;13.10;99.90;;;;;;5006367;28;20545;-51
2023/09/14 01:20:16;;;;;;;5.13;3.10;;;13.00;99.90;;;;;;5022223;28;20499;-51
2023/09/14 01:22:52;;;;;;;7.70;3.30;;;13.00;99.90;;;;;;5015990;28;21049;-53
2023/09/14 01:25:24;;;;;;;10.07;3.30;;;12.90;99.90;;;;;;5010977;28;21214;-51
2023/09/14 01:27:52;;;;;;;9.33;3.27;;;12.90;99.90;;;;;;5002907;28;20515;-52
2023/09/14 01:30:19;;;;;;;10.77;2.70;;;12.90;99.90;;;;;;5016432;28;20498;-50
2023/09/14 01:32:45;;;;;;;4.53;2.93;;;12.80;99.90;;;;;;5014020;28;20491;-51
2023/09/14 01:35:12;;;;;;;6.53;3.50;;;12.80;99.90;;;;;;5001066;28;20492;-51
2023/09/14 01:37:39;;;;;;;3.33;3.03;;;12.80;99.90;;;;;;5013529;28;20516;-50
2023/09/14 01:40:08;;;;;;;11.47;3.97;;;12.70;99.90;;;;;;5003477;28;20611;-53
2023/09/14 01:42:36;;;;;;;4.20;2.83;;;12.70;99.90;;;;;;5012360;28;20522;-51
2023/09/14 01:45:06;;;;;;;4.43;3.17;;;12.70;99.90;;;;;;5016142;28;20459;-51
2023/09/14 01:47:33;;;;;;;4.53;2.60;;;12.70;99.90;;;;;;5002152;28;20566;-52
2023/09/14 01:50:00;;;;;;;3.87;2.90;;;12.60;99.90;;;;;;5014643;28;20467;-52
2023/09/14 01:52:26;;;;;;;4.33;3.70;;;12.60;99.90;;;;;;5009435;28;20559;-52
2023/09/14 01:54:53;;;;;;;4.37;2.90;;;12.50;99.90;;;;;;5009806;28;21042;-52
2023/09/14 01:57:19;;;;;;;5.70;2.80;;;12.50;99.90;;;;;;5012715;28;20566;-52
2023/09/14 01:59:46;;;;;;;5.47;3.10;;;12.50;99.90;;;;;;5015255;28;20945;-52
2023/09/14 02:02:14;;;;;;;5.83;3.27;;;12.50;99.90;;;;;;5012906;28;20527;-51
2023/09/14 02:04:41;;;;;;;8.47;3.17;;;12.40;99.90;;;;;;5012429;28;20506;-52
2023/09/14 02:07:08;;;;;;;5.60;2.87;;;12.40;99.90;;;;;;5012493;28;21034;-50
2023/09/14 02:09:34;;;;;;;4.57;3.13;;;12.40;99.90;;;;;;5009586;28;20491;-51
2023/09/14 02:12:01;;;;;;;7.40;3.03;;;12.50;99.90;;;;;;5010879;28;20535;-51
2023/09/14 02:14:27;;;;;;;6.70;3.30;;;12.40;99.90;;;;;;5008213;28;21032;-51
2023/09/14 02:16:54;;;;;;;8.17;3.87;;;12.40;99.90;;;;;;5013416;28;20511;-51
2023/09/14 02:19:22;;;;;;;9.80;3.23;;;12.40;99.90;;;;;;5015649;28;20969;-51
2023/09/14 02:21:48;;;;;;;6.80;3.70;;;12.30;99.90;;;;;;5012549;28;20498;-50
2023/09/14 02:24:15;;;;;;;6.00;4.00;;;12.40;99.90;;;;;;5012503;28;21155;-51
2023/09/14 02:26:41;;;;;;;4.13;2.93;;;12.30;99.90;;;;;;5014871;28;20557;-51
2023/09/14 02:29:08;;;;;;;4.80;3.23;;;12.30;99.90;;;;;;5011255;28;20463;-51
2023/09/14 02:31:34;;;;;;;4.87;3.60;;;12.30;99.90;;;;;;5012269;28;20954;-51
2023/09/14 02:34:01;;;;;;;8.97;4.63;;;12.20;99.90;;;;;;5011452;28;20574;-51
2023/09/14 02:36:29;;;;;;;6.23;3.67;;;12.20;99.90;;;;;;5012065;28;20464;-52
2023/09/14 02:38:56;;;;;;;6.30;3.37;;;12.20;99.90;;;;;;5017510;28;20462;-52
2023/09/14 02:41:23;;;;;;;8.03;3.63;;;12.10;99.90;;;;;;5006409;28;20475;-51
2023/09/14 02:43:49;;;;;;;5.83;3.57;;;12.10;99.90;;;;;;5011906;28;20987;-51
2023/09/14 02:46:16;;;;;;;6.90;3.37;;;12.20;99.90;;;;;;5010945;28;20554;-51
2023/09/14 02:48:42;;;;;;;6.30;3.77;;;12.10;99.90;;;;;;5011393;28;20750;-51
2023/09/14 02:51:09;;;;;;;7.50;3.67;;;12.10;99.90;;;;;;5010245;28;20506;-51
2023/09/14 02:53:36;;;;;;;3.73;3.30;;;12.00;99.90;;;;;;5012073;28;20486;-50
2023/09/14 02:56:07;;;;;;;8.73;3.57;;;12.00;99.90;;;;;;5007557;28;20972;-52
2023/09/14 02:58:34;;;;;;;5.63;3.07;;;12.00;99.90;;;;;;5004140;28;20559;-52
2023/09/14 03:01:08;;;;;;;5.50;3.60;;;11.90;99.90;;;;;;5010301;28;20476;-51
2023/09/14 03:03:34;;;;;;;10.50;3.20;;;11.90;99.90;;;;;;5010236;28;20464;-50
2023/09/14 03:06:01;;;;;;;5.57;3.40;;;11.90;99.90;;;;;;5009537;28;20503;-51
2023/09/14 03:08:27;;;;;;;9.93;3.03;;;11.90;99.90;;;;;;5012087;28;20502;-50
2023/09/14 03:10:55;;;;;;;11.20;3.10;;;11.80;99.90;;;;;;5013461;28;20907;-53
2023/09/14 03:13:22;;;;;;;4.23;3.40;;;11.80;99.90;;;;;;5010513;28;20479;-51
2023/09/14 03:15:53;;;;;;;4.90;3.17;;;11.80;99.90;;;;;;5007686;28;20488;-51
2023/09/14 03:18:20;;;;;;;3.17;2.93;;;11.80;99.90;;;;;;5011281;28;20538;-51
2023/09/14 03:20:46;;;;;;;4.77;3.50;;;11.70;99.90;;;;;;5010787;28;20934;-50
2023/09/14 03:23:13;;;;;;;4.77;2.90;;;11.80;99.90;;;;;;5012655;28;20558;-51
2023/09/14 03:25:39;;;;;;;8.77;3.43;;;11.70;99.90;;;;;;5010804;28;20504;-51
2023/09/14 03:28:07;;;;;;;5.27;3.50;;;11.70;99.90;;;;;;5011075;28;20499;-52
2023/09/14 03:30:35;;;;;;;10.43;3.47;;;11.70;99.90;;;;;;5003534;28;21216;-52
2023/09/14 03:33:02;;;;;;;3.20;2.80;;;11.70;99.90;;;;;;5004705;28;20491;-50
2023/09/14 03:35:29;;;;;;;4.97;3.73;;;11.70;99.90;;;;;;5010343;28;20519;-52
2023/09/14 03:37:55;;;;;;;10.87;4.03;;;11.60;99.90;;;;;;5008217;28;20487;-51
2023/09/14 03:40:22;;;;;;;5.10;3.53;;;11.70;99.90;;;;;;5010649;28;20542;-51
2023/09/14 03:42:49;;;;;;;8.80;3.50;;;11.60;99.90;;;;;;5015701;28;20510;-51
2023/09/14 03:45:17;;;;;;;7.10;3.67;;;11.60;99.90;;;;;;5001983;28;20949;-51
2023/09/14 03:47:44;;;;;;;10.90;3.77;;;11.60;99.90;;;;;;5007955;28;20518;-52
2023/09/14 03:50:11;;;;;;;5.23;3.90;;;11.60;99.90;;;;;;5008607;28;20522;-51
2023/09/14 03:52:38;;;;;;;8.57;3.63;;;11.60;99.90;;;;;;5008147;28;20495;-51
2023/09/14 03:55:05;;;;;;;7.43;3.70;;;11.60;99.90;;;;;;5010090;28;20515;-50
2023/09/14 03:57:32;;;;;;;6.50;3.50;;;11.50;99.90;;;;;;5014904;28;20596;-52
2023/09/14 03:59:58;;;;;;;3.97;3.30;;;11.40;99.90;;;;;;5010219;28;20546;-51
2023/09/14 04:02:27;;;;;;;4.40;3.20;;;11.40;99.90;;;;;;5013171;28;20546;-52
2023/09/14 04:04:53;;;;;;;6.83;3.80;;;11.40;99.90;;;;;;5010809;28;20443;-50
2023/09/14 04:07:20;;;;;;;7.27;3.40;;;11.40;99.90;;;;;;5000902;28;20515;-51
2023/09/14 04:09:46;;;;;;;10.90;3.63;;;11.40;99.90;;;;;;5011365;28;20960;-52
2023/09/14 04:12:13;;;;;;;5.63;3.77;;;11.40;99.90;;;;;;5008981;28;20583;-52
2023/09/14 04:14:39;;;;;;;11.43;4.10;;;11.40;99.90;;;;;;5009179;28;20862;-51
2023/09/14 04:17:06;;;;;;;4.10;3.23;;;11.30;99.90;;;;;;5010005;28;20579;-51
2023/09/14 04:19:34;;;;;;;9.40;3.60;;;11.30;99.90;;;;;;5014779;28;20911;-50
2023/09/14 04:22:00;;;;;;;11.83;3.50;;;11.20;99.90;;;;;;5016021;28;20506;-52
2023/09/14 04:24:27;;;;;;;4.60;3.37;;;11.10;99.90;;;;;;5009755;28;20987;-51
2023/09/14 04:26:53;;;;;;;5.00;3.10;;;11.10;99.90;;;;;;5010840;28;20506;-51
2023/09/14 04:29:20;;;;;;;5.10;3.70;;;11.10;99.90;;;;;;5013826;28;20503;-50
2023/09/14 04:31:46;;;;;;;8.07;3.70;;;11.10;99.90;;;;;;5016962;28;20529;-51
2023/09/14 04:34:13;;;;;;;5.60;3.47;;;11.00;99.90;;;;;;5017151;28;20526;-53
2023/09/14 04:36:40;;;;;;;9.83;3.60;;;11.00;99.90;;;;;;5008419;28;20562;-51
2023/09/14 04:39:07;;;;;;;13.00;3.93;;;11.10;99.90;;;;;;5012174;28;20558;-51
2023/09/14 04:41:34;;;;;;;4.53;3.53;;;11.10;99.90;;;;;;5013714;28;20459;-52
2023/09/14 04:44:00;;;;;;;10.00;3.87;;;11.10;99.90;;;;;;5016644;28;20499;-52
2023/09/14 04:46:28;;;;;;;7.70;3.87;;;11.10;99.90;;;;;;5017947;28;20557;-52
2023/09/14 04:48:55;;;;;;;6.70;3.83;;;11.10;99.90;;;;;;5015412;28;20459;-52
2023/09/14 04:51:23;;;;;;;4.40;3.43;;;11.10;99.90;;;;;;5011553;28;20466;-53
2023/09/14 04:53:50;;;;;;;4.77;3.60;;;11.00;99.90;;;;;;5013667;28;20474;-52
2023/09/14 04:56:17;;;;;;;3.63;3.33;;;11.00;99.90;;;;;;5009465;28;20483;-51
2023/09/14 04:58:43;;;;;;;7.93;3.33;;;11.00;99.90;;;;;;5014237;28;20471;-51
2023/09/14 05:01:10;;;;;;;4.17;3.77;;;11.00;99.90;;;;;;5010125;28;20495;-50
2023/09/14 05:03:36;;;;;;;4.30;3.47;;;11.00;99.90;;;;;;5009367;28;20546;-51
2023/09/14 05:06:03;;;;;;;7.13;3.50;;;11.10;99.90;;;;;;5007180;28;20547;-51
2023/09/14 05:08:29;;;;;;;5.03;4.00;;;11.00;99.90;;;;;;5011815;28;20282;-51
2023/09/14 05:10:58;;;;;;;12.73;3.97;;;11.10;99.90;;;;;;5011325;28;20552;-51
2023/09/14 05:13:25;;;;;;;5.83;3.60;;;11.00;99.90;;;;;;5014412;28;20459;-52
2023/09/14 05:15:52;;;;;;;6.07;4.20;;;11.10;99.90;;;;;;5012453;28;20499;-51
2023/09/14 05:18:18;;;;;;;5.40;3.50;;;11.10;99.90;;;;;;5014944;28;20510;-52
2023/09/14 05:20:47;;;;;;;9.63;3.47;;;11.10;99.90;;;;;;5012271;28;20511;-57
2023/09/14 05:23:14;;;;;;;9.47;5.10;;;11.00;99.90;;;;;;5011883;28;20535;-51
2023/09/14 05:25:41;;;;;;;3.90;3.03;;;11.10;99.90;;;;;;5010395;28;20490;-50
2023/09/14 05:28:09;;;;;;;19.97;4.70;;;11.20;99.90;;;;;;5009446;28;20507;-50
2023/09/14 05:30:36;;;;;;;4.00;3.57;;;11.20;99.90;;;;;;5016408;28;20549;-50
2023/09/14 05:33:03;;;;;;;7.13;3.93;;;11.20;99.90;;;;;;5013755;28;20518;-51
2023/09/14 05:35:29;;;;;;;4.50;3.97;;;11.20;99.90;;;;;;5017629;28;20490;-51
2023/09/14 05:37:56;;;;;;;4.37;3.57;;;11.20;99.90;;;;;;5016678;28;20533;-50
2023/09/14 05:40:22;;;;;;;16.50;3.77;;;11.20;99.90;;;;;;5009648;28;20511;-51
2023/09/14 05:42:49;;;;;;;11.10;3.90;;;11.30;99.90;;;;;;5009246;28;20494;-52
2023/09/14 05:45:17;;;;;;;8.50;3.57;;;11.30;99.90;;;;;;5010157;28;20455;-52
2023/09/14 05:47:43;;;;;;;4.40;3.67;;;11.30;99.90;;;;;;5011596;28;20475;-52
2023/09/14 05:50:11;;;;;;;4.40;3.40;;;11.40;99.90;;;;;;5013582;28;20500;-51
2023/09/14 05:52:37;;;;;;;4.50;3.50;;;11.40;99.90;;;;;;5014918;28;20490;-52
2023/09/14 05:55:04;;;;;;;15.63;4.53;;;11.50;99.90;;;;;;5010450;28;20946;-53
2023/09/14 05:57:31;;;;;;;7.43;3.67;;;11.50;99.90;;;;;;5001951;28;20495;-49
2023/09/14 05:59:58;;;;;;;3.50;3.10;;;11.50;99.90;;;;;;5007455;28;20467;-50
2023/09/14 06:02:26;;;;;;;4.77;3.80;;;11.50;99.90;;;;;;5005117;28;20495;-50
2023/09/14 06:04:53;;;;;;;7.23;3.83;;;11.60;99.90;;;;;;5008617;28;20456;-50
2023/09/14 06:07:25;;;;;;;5.20;3.60;;;11.60;99.90;;;;;;5004590;28;20538;-50
2023/09/14 06:09:51;;;;;;;10.07;3.90;;;11.60;99.90;;;;;;5009911;28;21055;-50
2023/09/14 06:12:18;;;;;;;6.60;3.70;;;11.60;99.90;;;;;;5008495;28;20583;-50
2023/09/14 06:14:45;;;;;;;4.70;3.60;;;11.60;99.90;;;;;;5012907;28;20490;-50
2023/09/14 06:17:12;;;;;;;4.73;3.70;;;11.70;99.90;;;;;;5013920;28;20589;-50
2023/09/14 06:19:39;;;;;;;10.03;3.43;;;11.70;99.90;;;;;;5001976;28;20464;-51
2023/09/14 06:22:07;;;;;;;7.17;3.63;;;11.70;99.90;;;;;;5009408;28;20977;-50
2023/09/14 06:24:34;;;;;;;6.57;4.07;;;11.80;99.90;;;;;;5010870;28;20466;-50
2023/09/14 06:27:00;;;;;;;8.80;3.40;;;11.90;99.90;;;;;;5007599;28;20893;-50
2023/09/14 06:29:27;;;;;;;4.30;3.70;;;12.00;99.90;;;;;;5010407;28;20500;-50
2023/09/14 06:31:53;;;;;;;4.33;3.37;;;12.10;99.90;;;;;;5010102;28;21012;-51
2023/09/14 06:34:20;;;;;;;4.50;3.40;;;12.10;99.90;;;;;;5015384;28;20495;-50
2023/09/14 06:36:48;;;;;;;10.30;3.83;;;12.10;99.90;;;;;;5013227;28;20872;-50
2023/09/14 06:39:15;;;;;;;5.07;3.70;;;12.20;99.90;;;;;;5009975;28;20555;-50
2023/09/14 06:41:42;;;;;;;5.37;3.47;;;12.20;99.90;;;;;;5007920;28;20466;-49
2023/09/14 06:44:08;;;;;;;6.27;3.63;;;12.20;99.90;;;;;;5009840;28;20459;-50
2023/09/14 06:46:35;;;;;;;5.07;3.60;;;12.30;99.90;;;;;;5018522;28;20463;-50
2023/09/14 06:49:01;;;;;;;15.43;4.27;;;12.40;99.90;;;;;;5004306;28;20542;-50
2023/09/14 06:51:28;;;;;;;5.70;4.53;;;12.50;99.90;;;;;;5012897;28;20961;-51
2023/09/14 06:53:56;;;;;;;9.67;3.80;;;12.50;99.90;;;;;;5019134;28;20470;-49
2023/09/14 06:56:23;;;;;;;7.30;3.70;;;12.60;99.90;;;;;;5007397;28;20519;-50
2023/09/14 06:58:49;;;;;;;7.37;4.17;;;12.70;99.90;;;;;;5011125;28;20514;-50
2023/09/14 07:01:16;;;;;;;4.73;3.33;;;12.80;99.90;;;;;;5007220;28;20598;-51
2023/09/14 07:03:43;;;;;;;8.80;4.33;;;12.80;99.90;;;;;;5012459;28;20471;-50
2023/09/14 07:06:09;;;;;;;7.37;3.50;;;12.90;99.90;;;;;;5005471;28;20460;-51
2023/09/14 07:08:40;;;;;;;5.20;3.70;;;12.90;99.90;;;;;;5015858;28;20467;-50
2023/09/14 07:11:08;;;;;;;7.10;3.40;;;13.00;99.90;;;;;;5014838;28;20473;-50
2023/09/14 07:13:35;;;;;;;5.40;3.60;;;13.10;99.90;;;;;;5014869;28;20497;-50
2023/09/14 07:16:03;;;;;;;5.30;3.30;;;13.10;99.90;;;;;;5008851;28;20574;-50
2023/09/14 07:18:31;;;;;;;8.90;3.50;;;13.30;99.90;;;;;;5009475;28;20464;-50
2023/09/14 07:20:59;;;;;;;6.97;3.63;;;13.40;99.90;;;;;;5008723;28;20507;-50
2023/09/14 07:23:26;;;;;;;19.33;4.40;;;13.50;99.90;;;;;;5008764;28;20583;-50
2023/09/14 07:25:53;;;;;;;5.43;3.60;;;13.60;99.90;;;;;;5007171;28;20459;-49
2023/09/14 07:28:22;;;;;;;8.47;3.63;;;13.70;99.90;;;;;;5012008;28;20926;-49
2023/09/14 07:30:50;;;;;;;5.33;3.50;;;13.80;99.90;;;;;;5010654;28;20504;-50
2023/09/14 07:33:18;;;;;;;6.30;4.20;;;13.80;99.90;;;;;;5019064;28;20490;-51
2023/09/14 07:35:45;;;;;;;6.53;3.40;;;13.90;99.90;;;;;;5013676;28;20826;-51
2023/09/14 07:38:13;;;;;;;7.57;3.07;;;14.00;99.90;;;;;;5011312;28;20486;-51
2023/09/14 07:40:39;;;;;;;5.80;3.47;;;14.00;99.90;;;;;;5006511;28;20467;-50
2023/09/14 07:43:06;;;;;;;7.40;2.67;;;14.20;99.90;;;;;;4999511;28;20459;-50
2023/09/14 07:45:34;;;;;;;5.10;2.83;;;14.20;81.20;;;;;;5011793;28;20836;-50
2023/09/14 07:48:01;;;;;;;7.30;3.30;;;14.30;25.30;;;;;;5010849;28;20519;-50
2023/09/14 07:50:28;;;;;;;5.73;2.80;;;14.30;27.30;;;;;;4998144;28;20468;-51
2023/09/14 07:52:54;;;;;;;9.33;2.90;;;14.50;27.80;;;;;;5008344;28;20491;-50
2023/09/14 07:55:21;;;;;;;4.30;2.77;;;14.50;34.90;;;;;;5010345;28;20508;-50
2023/09/14 07:57:47;;;;;;;4.13;2.60;;;14.60;45.10;;;;;;5001390;28;20476;-50
2023/09/14 08:00:14;;;;;;;6.10;3.10;;;14.80;50.90;;;;;;5008975;28;20492;-49
2023/09/14 08:02:42;;;;;;;3.67;3.00;;;14.90;49.30;;;;;;5011069;28;21020;-49
2023/09/14 08:05:09;;;;;;;8.90;2.40;;;15.00;54.70;;;;;;5004054;28;20468;-49
2023/09/14 08:07:36;;;;;;;10.07;2.60;;;15.10;73.20;;;;;;5014672;28;20483;-49
2023/09/14 08:10:03;;;;;;;4.20;2.83;;;15.20;73.50;;;;;;5016138;28;20455;-57
2023/09/14 08:12:29;;;;;;;19.03;2.70;;;15.30;94.90;;;;;;5012078;28;20982;-49
2023/09/14 08:14:56;;;;;;;4.07;2.60;;;15.40;94.20;;;;;;5019611;28;20467;-52
2023/09/14 08:17:23;;;;;;;4.90;2.77;;;15.40;98.80;;;;;;5008212;28;20490;-52
2023/09/14 08:19:52;;;;;;;6.47;2.50;;;15.50;99.90;;;;;;5015553;28;20992;-52
2023/09/14 08:22:22;;;;;;;8.37;2.70;;;15.60;99.90;;;;;;5015371;28;20450;-53
2023/09/14 08:24:49;;;;;;;6.53;2.70;;;15.70;99.90;;;;;;5011496;28;20465;-53
2023/09/14 08:27:15;;;;;;;4.40;2.17;;;15.70;99.90;;;;;;5010860;28;21026;-52
2023/09/14 08:29:43;;;;;;;19.77;2.33;;;15.80;99.90;;;;;;5023564;28;20528;-52
2023/09/14 08:32:09;;;;;;;4.57;2.23;;;15.90;99.90;;;;;;5017452;28;20447;-53
2023/09/14 08:34:36;;;;;;;5.77;2.47;;;16.00;99.90;;;;;;5020378;28;20464;-53
2023/09/14 08:37:07;;;;;;;5.00;2.67;;;16.00;99.90;;;;;;5019947;28;20494;-53
2023/09/14 08:39:33;;;;;;;6.60;2.30;;;16.00;99.90;;;;;;5017681;28;20467;-53
2023/09/14 08:42:00;;;;;;;1.80;1.60;;;16.10;99.90;;;;;;5015590;28;20487;-53
2023/09/14 08:44:27;;;;;;;2.77;1.80;;;16.30;99.90;;;;;;5004117;28;20840;-53
2023/09/14 08:46:56;;;;;;;2.30;1.60;;;16.40;99.90;;;;;;5008734;28;20922;-54
2023/09/14 08:49:27;;;;;;;3.97;2.10;;;16.40;99.90;;;;;;5017251;28;20494;-53
2023/09/14 08:51:55;;;;;;;3.63;1.77;;;16.50;99.90;;;;;;5014585;28;20444;-53
2023/09/14 08:54:24;;;;;;;5.37;1.77;;;16.60;99.90;;;;;;5016731;28;20883;-54
2023/09/14 08:56:51;;;;;;;6.67;2.57;;;16.90;99.90;;;;;;5012767;28;20491;-53
2023/09/14 08:59:19;;;;;;;8.33;2.00;;;17.30;99.90;;;;;;5013008;28;20473;-53
2023/09/14 09:01:47;;;;;;;4.43;1.90;;;17.40;99.90;;;;;;5009694;28;20494;-53
2023/09/14 09:04:13;;;;;;;3.93;1.57;;;17.30;99.90;;;;;;5012693;28;20484;-54
2023/09/14 09:06:41;;;;;;;6.00;1.87;;;17.40;99.90;;;;;;5015631;28;20516;-52
2023/09/14 09:09:09;;;;;;;6.40;1.80;;;17.40;99.90;;;;;;5009448;28;20465;-53
2023/09/14 09:11:38;;;;;;;3.23;1.60;;;17.20;99.90;;;;;;5008572;28;20881;-54
2023/09/14 09:14:04;;;;;;;7.27;2.77;;;17.20;99.90;;;;;;5005715;28;20530;-53
2023/09/14 09:16:31;;;;;;;4.70;1.97;;;17.30;99.90;;;;;;5000753;28;20512;-53
2023/09/14 09:19:02;;;;;;;5.83;2.10;;;17.30;99.90;;;;;;5010699;28;20563;-53
2023/09/14 09:21:29;;;;;;;7.53;2.00;;;17.40;99.90;;;;;;5024200;28;20444;-55
2023/09/14 09:23:56;;;;;;;6.40;1.83;;;17.40;99.90;;;;;;5007902;28;20470;-53
2023/09/14 09:26:23;;;;;;;3.87;2.10;;;17.60;99.90;;;;;;5007496;28;21051;-53
2023/09/14 09:28:51;;;;;;;5.10;2.20;;;17.80;99.90;;;;;;5003402;28;20490;-53
2023/09/14 09:31:17;;;;;;;4.43;2.20;;;17.80;49.40;;;;;;5006922;28;20483;-54
2023/09/14 09:33:47;;;;;;;12.53;2.80;;;18.10;40.60;;;;;;5013273;28;20512;-54
2023/09/14 09:36:15;;;;;;;8.53;1.60;;;17.90;99.90;;;;;;5013723;28;20484;-53
2023/09/14 09:38:42;;;;;;;2.43;1.33;;;17.80;43.90;;;;;;5014543;28;20451;-53
2023/09/14 09:41:10;;;;;;;2.80;1.37;;;17.70;51.60;;;;;;5012282;28;21000;-53
2023/09/14 09:43:36;;;;;;;2.80;2.00;;;17.70;87.10;;;;;;5011677;28;20440;-53
2023/09/14 09:46:13;;;;;;;7.57;2.00;;;17.90;95.30;;;;;;5010309;28;20542;-54
2023/09/14 09:48:40;;;;;;;3.13;1.93;;;18.00;86.50;;;;;;5017121;28;20498;-54
2023/09/14 09:51:07;;;;;;;5.77;2.80;;;18.30;97.10;;;;;;5014546;28;20513;-54
2023/09/14 09:53:35;;;;;;;12.93;2.30;;;18.60;99.90;;;;;;5015109;28;20502;-53
2023/09/14 09:56:02;;;;;;;6.10;1.77;;;18.60;99.90;;;;;;5011340;28;21033;-54
2023/09/14 09:58:35;;;;;;;2.60;2.10;;;18.60;99.90;;;;;;5010668;28;20550;-54
2023/09/14 10:01:02;;;;;;;3.63;1.70;;;18.30;99.90;;;;;;5007160;28;20457;-54
2023/09/14 10:03:30;;;;;;;5.93;1.90;;;18.30;99.90;;;;;;5003502;28;20464;-53
2023/09/14 10:05:57;;;;;;;6.70;1.47;;;18.50;99.90;;;;;;5009536;28;20459;-53
2023/09/14 10:08:24;;;;;;;5.00;1.60;;;18.60;99.90;;;;;;5019413;28;20526;-54
2023/09/14 10:10:52;;;;;;;2.03;1.67;;;19.00;99.90;;;;;;5025771;28;20554;-54
2023/09/14 10:13:20;;;;;;;2.33;1.73;;;19.30;99.90;;;;;;5013213;28;20878;-55
2023/09/14 10:15:48;;;;;;;7.53;2.00;;;19.70;99.90;;;;;;5005792;28;21230;-53
2023/09/14 10:18:15;;;;;;;2.10;1.47;;;19.90;99.90;;;;;;5005511;28;20542;-54
2023/09/14 10:20:45;;;;;;;3.10;1.70;;;20.10;99.90;;;;;;5018163;28;20598;-54
2023/09/14 10:23:14;;;;;;;2.80;1.30;;;20.30;99.90;;;;;;5007622;28;20977;-55
2023/09/14 10:25:43;;;;;;;2.33;1.83;;;20.50;99.90;;;;;;5008855;28;21013;-53
2023/09/14 10:28:10;;;;;;;4.60;1.93;;;21.00;99.90;;;;;;5009105;28;20480;-60
2023/09/14 10:30:37;;;;;;;4.10;2.07;;;21.30;99.90;;;;;;5001938;28;20545;-54
2023/09/14 10:33:05;;;;;;;2.97;1.43;;;21.10;99.90;;;;;;5007389;28;20556;-54
2023/09/14 10:35:33;;;;;;;4.30;1.90;;;21.10;99.90;;;;;;5013307;28;20550;-53
2023/09/14 10:38:04;;;;;;;3.37;2.00;;;21.40;99.90;;;;;;5003653;28;21011;-53
2023/09/14 10:40:30;;;;;;;5.90;1.27;;;22.20;99.90;;;;;;5008802;28;20547;-54
2023/09/14 10:42:57;;;;;;;8.33;1.83;;;22.70;99.90;;;;;;5014287;28;20487;-54
2023/09/14 10:45:25;;;;;;;2.33;1.60;;;22.70;99.90;;;;;;5010446;28;20487;-53
2023/09/14 10:47:52;;;;;;;11.27;2.10;;;23.50;99.90;;;;;;5012742;28;20479;-53
2023/09/14 10:50:21;;;;;;;3.63;1.80;;;22.70;99.90;;;;;;5006185;28;20547;-53
2023/09/14 10:52:48;;;;;;;4.90;1.83;;;22.00;99.90;;;;;;5012360;28;20486;-55
2023/09/14 10:55:16;;;;;;;10.33;1.57;;;21.50;99.90;;;;;;5010006;28;20538;-54
2023/09/14 10:57:42;;;;;;;4.57;1.70;;;20.60;99.90;;;;;;5012797;28;20606;-54
2023/09/14 11:00:29;;;;;;;3.40;1.90;;;21.10;99.90;;;;;;5006239;28;20546;-53
2023/09/14 11:02:58;;;;;;;2.87;1.70;;;21.90;99.90;;;;;;5013616;28;20245;-54
2023/09/14 11:05:25;;;;;;;3.27;1.40;;;20.70;99.90;;;;;;5014811;28;20455;-53
2023/09/14 11:07:58;;;;;;;3.90;1.60;;;20.00;99.90;;;;;;5010685;28;20486;-52
2023/09/14 11:10:24;;;;;;;5.73;1.70;;;19.50;99.90;;;;;;5012844;28;20518;-53
2023/09/14 11:12:51;;;;;;;2.73;1.70;;;19.10;99.90;;;;;;5002519;28;20552;-53
2023/09/14 11:15:21;;;;;;;5.07;2.00;;;18.80;99.90;;;;;;5000643;28;20954;-53
2023/09/14 11:17:52;;;;;;;6.03;1.70;;;18.50;99.90;;;;;;5008833;28;20491;-53
2023/09/14 11:20:39;;;;;;;2.40;1.80;;;18.40;1.40;;;;;;5008258;28;20527;-53
2023/09/14 11:23:08;;;;;;;2.90;1.90;;;18.40;99.90;;;;;;5015370;28;20547;-51
2023/09/14 11:25:36;;;;;;;2.83;1.70;;;18.30;1.40;;;;;;5009765;28;20441;-52
2023/09/14 11:28:04;;;;;;;3.23;1.40;;;18.40;99.90;;;;;;5004971;28;20512;-53
2023/09/14 11:30:31;;;;;;;7.63;1.57;;;18.30;99.90;;;;;;5025251;28;20463;-53
2023/09/14 11:33:00;;;;;;;3.00;1.60;;;18.30;99.90;;;;;;5040731;28;20524;-53
2023/09/14 11:35:34;;;;;;;5.40;1.80;;;18.20;99.90;;;;;;5013950;28;20591;-52
2023/09/14 11:38:03;;;;;;;1.97;1.87;;;18.20;99.90;;;;;;4998152;28;20570;-52
2023/09/14 11:40:32;;;;;;;3.60;1.80;;;18.20;99.90;;;;;;5009970;28;20835;-53
2023/09/14 11:43:22;;;;;;;2.50;1.90;;;18.20;99.90;;;;;;5010939;28;20498;-53
2023/09/14 11:45:49;;;;;;;5.17;1.73;;;18.10;99.90;;;;;;4998625;28;20464;-53
2023/09/14 11:48:17;;;;;;;6.63;1.30;;;18.10;99.90;;;;;;5015940;28;20475;-52
2023/09/14 11:50:47;;;;;;;3.70;1.80;;;18.00;99.90;;;;;;5005214;28;20494;-54
2023/09/14 11:53:18;;;;;;;3.17;2.10;;;18.10;99.90;;;;;;5024352;28;20528;-54
2023/09/14 11:55:45;;;;;;;2.63;1.43;;;18.30;99.90;;;;;;5010900;28;20485;-53
2023/09/14 11:58:12;;;;;;;4.10;1.50;;;18.50;99.90;;;;;;5018896;28;20494;-52
2023/09/14 12:00:41;;;;;;;1.60;1.50;;;18.80;99.90;;;;;;5008233;28;20445;-52
2023/09/14 12:03:08;;;;;;;2.57;1.83;;;19.10;99.90;;;;;;5008861;28;20824;-53
2023/09/14 12:05:35;;;;;;;4.30;2.10;;;19.30;99.90;;;;;;5004730;28;20476;-54
2023/09/14 12:08:09;;;;;;;3.77;1.80;;;19.40;99.90;;;;;;5010645;28;20919;-52
2023/09/14 12:10:37;;;;;;;4.07;1.80;;;19.60;99.90;;;;;;5011185;28;20517;-52
2023/09/14 12:13:12;;;;;;;3.53;1.63;;;20.50;99.90;;;;;;5009137;28;20489;-53
2023/09/14 12:15:38;;;;;;;1.67;1.50;;;20.50;99.90;;;;;;5006757;28;20463;-53
2023/09/14 12:18:06;;;;;;;3.10;1.50;;;20.40;99.90;;;;;;5023497;28;20490;-58
2023/09/14 12:20:35;;;;;;;1.87;1.60;;;20.30;99.90;;;;;;5007156;28;20487;-53
2023/09/14 12:23:03;;;;;;;4.33;2.10;;;20.50;99.90;;;;;;5015369;28;20471;-53
2023/09/14 12:25:30;;;;;;;17.07;6.50;;;20.50;99.90;;;;;;5009668;28;21032;-53
2023/09/14 12:28:00;;;;;;;9.33;3.53;;;20.40;99.90;;;;;;5005820;28;20511;-53
2023/09/14 12:30:28;;;;;;;5.13;2.70;;;20.60;99.90;;;;;;5010214;28;21026;-53
2023/09/14 12:32:55;;;;;;;8.97;3.83;;;20.80;99.90;;;;;;4999762;28;20521;-53
2023/09/14 12:35:23;;;;;;;16.10;5.60;;;21.00;99.90;;;;;;5010932;28;20535;-53
2023/09/14 12:37:51;;;;;;;10.33;3.20;;;20.70;99.90;;;;;;5015280;28;20491;-52
2023/09/14 12:40:18;;;;;;;11.70;5.30;;;20.60;99.90;;;;;;5005921;28;20555;-52
2023/09/14 12:42:45;;;;;;;13.37;3.50;;;21.00;99.90;;;;;;5012072;28;20536;-52
2023/09/14 12:45:16;;;;;;;4.73;2.67;;;22.50;99.90;;;;;;5009075;28;20548;-53
2023/09/14 12:47:45;;;;;;;7.50;3.90;;;24.20;99.90;;;;;;4998425;28;20530;-53